createdAt,value
2018-06-29T00:00:47.150Z,19.60
2018-06-29T00:03:15.635Z,19.60
2018-06-29T00:05:44.044Z,19.60
2018-06-29T00:08:12.479Z,19.50
2018-06-29T00:10:40.904Z,19.50
2018-06-29T00:13:09.300Z,19.30
2018-06-29T00:15:37.771Z,19.30
2018-06-29T00:18:06.196Z,19.20
2018-06-29T00:20:34.631Z,19.20
2018-06-29T00:23:03.040Z,19.10
2018-06-29T00:25:31.499Z,19.10
2018-06-29T00:27:59.944Z,19.10
2018-06-29T00:30:28.366Z,19.10
2018-06-29T00:32:56.760Z,19.10
2018-06-29T00:35:25.196Z,19.10
2018-06-29T00:37:53.760Z,19.10
2018-06-29T00:40:22.149Z,19.00
2018-06-29T00:42:50.522Z,19.00
2018-06-29T00:45:18.974Z,18.90
2018-06-29T00:47:47.385Z,18.80
2018-06-29T00:50:15.806Z,18.70
2018-06-29T00:52:44.267Z,18.70
2018-06-29T00:55:12.754Z,18.70
2018-06-29T00:57:41.197Z,18.70
2018-06-29T01:00:09.612Z,18.70
2018-06-29T01:02:38.179Z,18.60
2018-06-29T01:05:06.620Z,18.50
2018-06-29T01:07:35.068Z,18.50
2018-06-29T01:10:03.551Z,18.40
2018-06-29T01:15:00.104Z,18.30
2018-06-29T01:17:28.603Z,18.30
2018-06-29T01:19:57.005Z,18.20
2018-06-29T01:22:25.475Z,18.10
2018-06-29T01:24:53.920Z,18.00
2018-06-29T01:29:50.373Z,17.90
2018-06-29T01:34:46.852Z,17.80
2018-06-29T01:37:15.264Z,17.80
2018-06-29T01:39:43.696Z,17.70
2018-06-29T01:42:12.099Z,17.70
2018-06-29T01:44:40.497Z,17.70
2018-06-29T01:47:08.981Z,17.70
2018-06-29T01:49:37.411Z,17.70
2018-06-29T01:52:06.048Z,17.70
2018-06-29T01:54:34.486Z,17.60
2018-06-29T01:57:02.911Z,17.60
2018-06-29T01:59:31.374Z,17.50
2018-06-29T02:01:59.794Z,17.50
2018-06-29T02:04:28.193Z,17.50
2018-06-29T02:06:56.582Z,17.50
2018-06-29T02:09:24.978Z,17.40
2018-06-29T02:11:53.409Z,17.40
2018-06-29T02:14:21.812Z,17.40
2018-06-29T02:16:50.235Z,17.30
2018-06-29T02:19:18.623Z,17.30
2018-06-29T02:21:47.072Z,17.20
2018-06-29T02:24:15.454Z,17.20
2018-06-29T02:26:43.948Z,17.20
2018-06-29T02:29:12.386Z,17.10
2018-06-29T02:31:40.801Z,17.00
2018-06-29T02:34:09.248Z,17.00
2018-06-29T02:36:37.656Z,16.90
2018-06-29T02:39:09.597Z,16.90
2018-06-29T02:41:37.999Z,16.90
2018-06-29T02:44:06.396Z,16.80
2018-06-29T02:46:34.810Z,16.80
2018-06-29T02:49:03.303Z,16.70
2018-06-29T02:51:31.727Z,16.70
2018-06-29T02:54:00.164Z,16.70
2018-06-29T02:56:28.608Z,16.70
2018-06-29T02:58:56.988Z,16.70
2018-06-29T03:01:25.371Z,16.60
2018-06-29T03:03:54.030Z,16.60
2018-06-29T03:06:22.490Z,16.60
2018-06-29T03:08:50.907Z,16.50
2018-06-29T03:11:19.344Z,16.50
2018-06-29T03:13:47.729Z,16.50
2018-06-29T03:16:16.143Z,16.40
2018-06-29T03:18:44.578Z,16.40
2018-06-29T03:21:12.984Z,16.40
2018-06-29T03:23:41.403Z,16.40
2018-06-29T03:26:09.965Z,16.30
2018-06-29T03:28:38.447Z,16.30
2018-06-29T03:31:06.903Z,16.30
2018-06-29T03:33:35.317Z,16.40
2018-06-29T03:36:03.726Z,16.40
2018-06-29T03:38:32.122Z,16.40
2018-06-29T03:41:00.557Z,16.40
2018-06-29T03:43:28.985Z,16.40
2018-06-29T03:45:57.436Z,16.50
2018-06-29T03:50:53.968Z,17.80
2018-06-29T03:53:22.373Z,18.70
2018-06-29T03:58:18.936Z,20.50
2018-06-29T04:00:47.330Z,21.30
2018-06-29T04:05:43.996Z,22.80
2018-06-29T04:08:12.472Z,23.40
2018-06-29T04:10:40.905Z,24.10
2018-06-29T04:15:40.299Z,25.20
2018-06-29T04:18:08.758Z,25.70
2018-06-29T04:20:37.354Z,26.20
2018-06-29T04:23:05.855Z,26.70
2018-06-29T04:25:34.259Z,27.20
2018-06-29T04:28:02.675Z,27.60
2018-06-29T04:30:31.077Z,28.00
2018-06-29T04:32:59.488Z,28.40
2018-06-29T04:35:27.953Z,28.80
2018-06-29T04:37:56.371Z,29.20
2018-06-29T04:40:24.762Z,29.50
2018-06-29T04:42:53.222Z,29.80
2018-06-29T04:45:21.601Z,30.20
2018-06-29T04:47:50.006Z,30.40
2018-06-29T04:50:18.410Z,30.60
2018-06-29T04:52:46.797Z,30.70
2018-06-29T04:55:15.158Z,31.00
2018-06-29T04:57:43.537Z,31.20
2018-06-29T05:00:11.943Z,31.40
2018-06-29T05:02:40.391Z,31.50
2018-06-29T05:05:08.792Z,31.80
2018-06-29T05:07:37.179Z,31.90
2018-06-29T05:12:33.771Z,32.30
2018-06-29T05:15:02.164Z,32.40
2018-06-29T05:17:30.588Z,32.60
2018-06-29T05:19:59.001Z,32.80
2018-06-29T05:22:27.379Z,33.00
2018-06-29T05:24:55.802Z,32.90
2018-06-29T05:27:24.216Z,33.00
2018-06-29T05:32:20.751Z,33.20
2018-06-29T05:34:49.232Z,33.20
2018-06-29T05:37:17.703Z,33.20
2018-06-29T05:43:41.853Z,32.90
2018-06-29T05:46:10.332Z,32.80
2018-06-29T05:48:38.733Z,32.50
2018-06-29T05:51:07.137Z,32.30
2018-06-29T05:53:35.590Z,32.00
2018-06-29T05:56:04.016Z,31.80
2018-06-29T05:58:32.535Z,31.50
2018-06-29T06:01:00.938Z,31.10
2018-06-29T06:03:29.366Z,30.70
2018-06-29T06:05:57.737Z,30.30
2018-06-29T06:08:26.127Z,29.70
2018-06-29T06:10:54.524Z,29.00
2018-06-29T06:13:22.927Z,28.40
2018-06-29T06:15:51.323Z,28.00
2018-06-29T06:18:19.717Z,27.50
2018-06-29T06:20:48.105Z,27.10
2018-06-29T06:23:19.479Z,26.80
2018-06-29T06:30:44.843Z,26.10
2018-06-29T06:33:13.381Z,25.80
2018-06-29T06:35:42.067Z,25.60
2018-06-29T06:38:10.649Z,25.50
2018-06-29T06:40:39.025Z,25.30
2018-06-29T06:43:07.522Z,25.10
2018-06-29T06:45:36.077Z,24.90
2018-06-29T06:48:04.513Z,24.80
2018-06-29T06:50:32.929Z,24.80
2018-06-29T06:53:01.315Z,24.80
2018-06-29T06:55:29.893Z,24.70
2018-06-29T06:57:58.293Z,24.70
2018-06-29T07:00:26.723Z,24.60
2018-06-29T07:02:55.108Z,24.50
2018-06-29T07:05:23.485Z,24.40
2018-06-29T07:07:52.051Z,24.30
2018-06-29T07:10:20.436Z,24.30
2018-06-29T07:12:48.863Z,24.30
2018-06-29T07:15:17.271Z,24.30
2018-06-29T07:17:45.694Z,24.30
2018-06-29T07:20:14.164Z,24.40
2018-06-29T07:22:42.623Z,24.50
2018-06-29T07:25:11.111Z,24.40
2018-06-29T07:27:39.499Z,24.40
2018-06-29T07:30:08.754Z,24.40
2018-06-29T07:32:37.182Z,24.40
2018-06-29T07:35:05.733Z,24.60
2018-06-29T07:40:02.287Z,24.50
2018-06-29T07:44:58.775Z,24.30
2018-06-29T07:47:28.012Z,24.20
2018-06-29T07:49:56.382Z,24.20
2018-06-29T07:52:24.776Z,24.10
2018-06-29T07:54:53.139Z,24.10
2018-06-29T07:57:21.734Z,24.10
2018-06-29T07:59:50.122Z,24.20
2018-06-29T08:02:18.530Z,24.20
2018-06-29T08:04:46.902Z,24.20
2018-06-29T08:07:15.305Z,24.30
2018-06-29T08:09:43.679Z,24.20
2018-06-29T08:12:12.083Z,24.10
2018-06-29T08:14:40.444Z,24.20
2018-06-29T08:17:08.847Z,24.20
2018-06-29T08:19:37.228Z,24.20
2018-06-29T08:22:05.584Z,24.30
2018-06-29T08:24:34.028Z,24.50
2018-06-29T08:27:02.428Z,24.60
2018-06-29T08:29:30.851Z,24.70
2018-06-29T08:31:59.269Z,24.70
2018-06-29T08:34:27.630Z,24.80
2018-06-29T08:36:56.084Z,24.70
2018-06-29T08:39:24.479Z,24.60
2018-06-29T08:41:52.927Z,24.60
2018-06-29T08:44:21.284Z,24.60
2018-06-29T08:46:49.739Z,24.70
2018-06-29T08:51:57.841Z,24.70
2018-06-29T08:54:26.277Z,24.70
2018-06-29T08:56:54.718Z,24.70
2018-06-29T08:59:23.111Z,24.70
2018-06-29T09:01:51.452Z,24.70
2018-06-29T09:04:19.878Z,24.70
2018-06-29T09:06:48.262Z,24.70
2018-06-29T09:09:16.668Z,24.70
2018-06-29T09:11:45.085Z,24.70
2018-06-29T09:14:13.483Z,24.80
2018-06-29T09:16:41.903Z,24.80
2018-06-29T09:19:10.670Z,24.80
2018-06-29T09:21:39.020Z,24.80
2018-06-29T09:26:35.596Z,24.90
2018-06-29T09:29:04.050Z,24.90
2018-06-29T09:31:32.459Z,25.00
2018-06-29T09:34:00.910Z,25.10
2018-06-29T09:36:29.381Z,25.20
2018-06-29T09:38:57.787Z,25.30
2018-06-29T09:41:26.214Z,25.30
2018-06-29T09:43:54.577Z,25.30
2018-06-29T09:46:23.040Z,25.40
2018-06-29T09:48:51.396Z,25.30
2018-06-29T09:51:19.812Z,25.30
2018-06-29T09:53:48.156Z,25.20
2018-06-29T09:56:16.573Z,25.20
2018-06-29T09:58:44.940Z,25.30
2018-06-29T10:01:13.389Z,25.40
2018-06-29T10:03:41.836Z,25.40
2018-06-29T10:06:10.231Z,25.40
2018-06-29T10:13:34.868Z,25.40
2018-06-29T10:16:03.297Z,25.40
2018-06-29T10:18:31.710Z,25.40
2018-06-29T10:21:00.159Z,25.40
2018-06-29T10:23:28.581Z,25.50
2018-06-29T10:28:25.045Z,25.60
2018-06-29T10:30:53.485Z,25.70
2018-06-29T10:33:21.890Z,25.90
2018-06-29T10:35:50.335Z,25.90
2018-06-29T10:38:18.720Z,25.90
2018-06-29T10:40:47.197Z,25.90
2018-06-29T10:43:15.570Z,26.00
2018-06-29T10:45:43.984Z,26.00
2018-06-29T10:48:12.384Z,26.00
2018-06-29T10:50:40.807Z,26.10
2018-06-29T10:53:09.188Z,26.30
2018-06-29T10:55:37.609Z,26.30
2018-06-29T10:58:06.013Z,26.30
2018-06-29T11:00:34.429Z,26.30
2018-06-29T11:03:02.831Z,26.40
2018-06-29T11:05:31.276Z,26.40
2018-06-29T11:07:59.680Z,26.40
2018-06-29T11:10:28.081Z,26.40
2018-06-29T11:15:24.525Z,26.40
2018-06-29T11:17:55.954Z,26.40
2018-06-29T11:20:24.370Z,26.40
2018-06-29T11:22:52.798Z,26.30
2018-06-29T11:25:21.252Z,26.30
2018-06-29T11:27:49.642Z,26.30
2018-06-29T11:30:18.209Z,26.30
2018-06-29T11:32:46.573Z,26.30
2018-06-29T11:35:14.943Z,26.40
2018-06-29T11:37:43.360Z,26.50
2018-06-29T11:40:11.764Z,26.50
2018-06-29T11:42:40.303Z,26.60
2018-06-29T11:45:08.662Z,26.60
2018-06-29T11:47:37.121Z,26.70
2018-06-29T11:50:05.799Z,26.70
2018-06-29T11:52:34.494Z,26.70
2018-06-29T11:55:02.869Z,26.80
2018-06-29T11:57:31.323Z,26.80
2018-06-29T11:59:59.670Z,26.80
2018-06-29T12:02:28.120Z,26.80
2018-06-29T12:04:56.545Z,26.90
2018-06-29T12:07:24.940Z,26.90
2018-06-29T12:09:53.383Z,26.90
2018-06-29T12:12:21.853Z,26.90
2018-06-29T12:14:50.363Z,27.10
2018-06-29T12:17:18.711Z,27.20
2018-06-29T12:19:47.155Z,27.30
2018-06-29T12:22:15.565Z,27.30
2018-06-29T12:29:40.260Z,27.30
2018-06-29T12:32:08.680Z,27.30
2018-06-29T12:34:37.113Z,27.20
2018-06-29T12:37:05.518Z,27.30
2018-06-29T12:39:33.989Z,27.30
2018-06-29T12:42:02.405Z,27.30
2018-06-29T12:44:30.817Z,27.40
2018-06-29T12:46:59.225Z,27.30
2018-06-29T12:49:27.643Z,27.30
2018-06-29T12:51:56.432Z,27.30
2018-06-29T12:54:24.459Z,27.40
2018-06-29T12:56:52.917Z,27.40
2018-06-29T12:59:21.322Z,27.40
2018-06-29T13:01:49.714Z,27.40
2018-06-29T13:04:18.137Z,27.40
2018-06-29T13:06:46.578Z,27.40
2018-06-29T13:11:43.175Z,27.40
2018-06-29T13:14:11.651Z,27.50
2018-06-29T13:16:40.056Z,27.60
2018-06-29T13:19:08.558Z,27.70
2018-06-29T13:21:36.961Z,27.70
2018-06-29T13:24:05.453Z,27.70
2018-06-29T13:26:33.864Z,27.70
2018-06-29T13:29:02.247Z,27.70
2018-06-29T13:31:30.656Z,27.60
2018-06-29T13:33:59.088Z,27.60
2018-06-29T13:36:27.518Z,27.50
2018-06-29T13:38:55.935Z,27.60
2018-06-29T13:41:24.353Z,27.50
2018-06-29T13:43:52.839Z,27.60
2018-06-29T13:46:21.233Z,27.60
2018-06-29T13:51:17.726Z,27.70
2018-06-29T13:53:46.104Z,27.70
2018-06-29T13:56:14.867Z,27.80
2018-06-29T13:58:43.277Z,27.80
2018-06-29T14:01:11.690Z,27.90
2018-06-29T14:03:40.131Z,27.90
2018-06-29T14:06:08.715Z,27.90
2018-06-29T14:08:37.135Z,27.90
2018-06-29T14:11:05.506Z,27.90
2018-06-29T14:13:33.908Z,27.90
2018-06-29T14:16:02.331Z,27.90
2018-06-29T14:18:30.739Z,28.00
2018-06-29T14:20:59.122Z,27.90
2018-06-29T14:23:27.559Z,27.90
2018-06-29T14:25:55.958Z,28.00
2018-06-29T14:28:24.365Z,28.00
2018-06-29T14:30:52.759Z,28.00
2018-06-29T14:33:21.220Z,27.90
2018-06-29T14:35:49.629Z,27.90
2018-06-29T14:38:18.037Z,27.90
2018-06-29T14:40:46.431Z,27.90
2018-06-29T14:43:14.831Z,27.90
2018-06-29T14:45:43.332Z,27.90
2018-06-29T14:48:11.728Z,27.80
2018-06-29T14:50:40.121Z,27.80
2018-06-29T14:53:08.549Z,27.80
2018-06-29T14:55:37.012Z,27.80
2018-06-29T14:58:05.770Z,27.80
2018-06-29T15:00:34.328Z,27.80
2018-06-29T15:03:02.749Z,27.90
2018-06-29T15:07:59.239Z,27.80
2018-06-29T15:10:27.659Z,27.90
2018-06-29T15:12:56.042Z,27.90
2018-06-29T15:15:24.487Z,27.90
2018-06-29T15:17:52.891Z,27.90
2018-06-29T15:20:21.265Z,27.90
2018-06-29T15:22:49.639Z,27.90
2018-06-29T15:25:18.218Z,27.80
2018-06-29T15:27:46.609Z,27.80
2018-06-29T15:30:15.021Z,27.80
2018-06-29T15:32:43.455Z,27.90
2018-06-29T15:35:11.912Z,27.90
2018-06-29T15:40:08.448Z,27.80
2018-06-29T15:42:36.845Z,27.80
2018-06-29T15:45:05.632Z,27.80
2018-06-29T15:50:02.138Z,27.70
2018-06-29T15:52:30.545Z,27.70
2018-06-29T15:54:58.904Z,27.70
2018-06-29T15:57:27.371Z,27.70
2018-06-29T15:59:55.785Z,27.80
2018-06-29T16:02:24.168Z,27.80
2018-06-29T16:04:52.959Z,27.70
2018-06-29T16:07:21.368Z,27.70
2018-06-29T16:09:49.799Z,27.70
2018-06-29T16:12:18.272Z,27.80
2018-06-29T16:14:46.616Z,27.70
2018-06-29T16:17:15.214Z,27.70
2018-06-29T16:19:43.568Z,27.80
2018-06-29T16:24:40.132Z,27.80
2018-06-29T16:27:08.580Z,27.80
2018-06-29T16:29:37.044Z,27.80
2018-06-29T16:32:05.437Z,27.80
2018-06-29T16:34:33.820Z,27.70
2018-06-29T16:37:02.259Z,27.70
2018-06-29T16:39:30.610Z,27.70
2018-06-29T16:44:27.129Z,27.70
2018-06-29T16:46:55.558Z,27.70
2018-06-29T16:49:23.947Z,27.70
2018-06-29T16:51:52.340Z,27.70
2018-06-29T16:54:20.700Z,27.70
2018-06-29T16:56:49.107Z,27.70
2018-06-29T16:59:17.490Z,27.70
2018-06-29T17:01:45.910Z,27.70
2018-06-29T17:04:14.324Z,27.70
2018-06-29T17:06:42.844Z,27.70
2018-06-29T17:09:11.223Z,27.60
2018-06-29T17:11:39.612Z,27.60
2018-06-29T17:14:07.987Z,27.60
2018-06-29T17:16:36.442Z,27.50
2018-06-29T17:19:05.064Z,27.50
2018-06-29T17:21:33.470Z,27.50
2018-06-29T17:24:01.923Z,27.50
2018-06-29T17:26:30.275Z,27.50
2018-06-29T17:28:58.838Z,27.40
2018-06-29T17:31:27.176Z,27.40
2018-06-29T17:33:55.599Z,27.40
2018-06-29T17:36:23.995Z,27.30
2018-06-29T17:38:52.477Z,27.30
2018-06-29T17:41:20.965Z,27.30
2018-06-29T17:43:49.372Z,27.30
2018-06-29T17:46:17.751Z,27.20
2018-06-29T17:48:46.164Z,27.10
2018-06-29T17:51:14.561Z,27.20
2018-06-29T17:53:42.987Z,27.20
2018-06-29T17:56:11.370Z,27.10
2018-06-29T17:58:39.782Z,27.10
2018-06-29T18:01:08.359Z,27.00
2018-06-29T18:03:36.743Z,27.00
2018-06-29T18:06:05.351Z,27.00
2018-06-29T18:08:33.760Z,26.90
2018-06-29T18:11:02.142Z,26.90
2018-06-29T18:13:30.531Z,26.80
2018-06-29T18:15:59.001Z,26.70
2018-06-29T18:18:27.348Z,26.70
2018-06-29T18:20:55.789Z,26.70
2018-06-29T18:23:29.444Z,26.60
2018-06-29T18:25:57.827Z,26.60
2018-06-29T18:28:26.564Z,26.50
2018-06-29T18:30:55.006Z,26.50
2018-06-29T18:33:23.396Z,26.40
2018-06-29T18:35:51.812Z,26.40
2018-06-29T18:38:20.197Z,26.30
2018-06-29T18:43:16.755Z,26.10
2018-06-29T18:45:45.160Z,26.10
2018-06-29T18:48:13.557Z,25.90
2018-06-29T18:50:41.988Z,25.90
2018-06-29T18:53:10.401Z,25.80
2018-06-29T18:55:38.955Z,25.80
2018-06-29T18:58:07.427Z,25.70
2018-06-29T19:03:03.981Z,25.60
2018-06-29T19:08:00.455Z,25.40
2018-06-29T19:10:28.865Z,25.30
2018-06-29T19:12:57.240Z,25.30
2018-06-29T19:15:25.722Z,25.20
2018-06-29T19:17:54.142Z,25.10
2018-06-29T19:20:22.705Z,25.10
2018-06-29T19:22:51.102Z,25.00
2018-06-29T19:25:19.473Z,24.90
2018-06-29T19:27:47.924Z,24.90
2018-06-29T19:30:16.349Z,24.80
2018-06-29T19:37:41.002Z,24.60
2018-06-29T19:45:05.700Z,24.30
2018-06-29T19:50:02.277Z,24.30
2018-06-29T19:52:30.685Z,24.20
2018-06-29T19:54:59.072Z,24.10
2018-06-29T19:57:27.465Z,24.00
2018-06-29T19:59:55.846Z,24.00
2018-06-29T20:02:26.195Z,23.90
2018-06-29T20:04:55.967Z,23.90
2018-06-29T20:07:24.548Z,23.80
2018-06-29T20:09:52.978Z,23.80
2018-06-29T20:17:17.889Z,23.60
2018-06-29T20:19:46.607Z,23.50
2018-06-29T20:22:15.036Z,23.50
2018-06-29T20:24:43.431Z,23.50
2018-06-29T20:27:11.859Z,23.30
2018-06-29T20:29:40.269Z,23.30
2018-06-29T20:32:08.656Z,23.30
2018-06-29T20:34:37.076Z,23.20
2018-06-29T20:37:05.470Z,23.20
2018-06-29T20:39:33.862Z,23.10
2018-06-29T20:42:02.355Z,23.10
2018-06-29T20:44:30.758Z,23.00
2018-06-29T20:46:59.142Z,23.00
2018-06-29T20:49:27.570Z,22.90
2018-06-29T20:51:55.980Z,22.90
2018-06-29T20:54:24.366Z,22.80
2018-06-29T20:56:52.732Z,22.80
2018-06-29T20:59:21.089Z,22.70
2018-06-29T21:01:49.502Z,22.70
2018-06-29T21:04:17.903Z,22.60
2018-06-29T21:06:46.343Z,22.60
2018-06-29T21:09:14.749Z,22.50
2018-06-29T21:11:43.337Z,22.50
2018-06-29T21:14:12.231Z,22.50
2018-06-29T21:16:40.677Z,22.40
2018-06-29T21:19:09.120Z,22.30
2018-06-29T21:21:37.575Z,22.30
2018-06-29T21:26:34.066Z,22.20
2018-06-29T21:29:02.416Z,22.20
2018-06-29T21:31:31.280Z,22.10
2018-06-29T21:33:59.625Z,22.00
2018-06-29T21:36:28.032Z,22.00
2018-06-29T21:38:56.605Z,22.00
2018-06-29T21:41:25.012Z,21.90
2018-06-29T21:46:21.564Z,21.80
2018-06-29T21:48:49.971Z,21.80
2018-06-29T21:51:18.377Z,21.70
2018-06-29T21:53:46.773Z,21.70
2018-06-29T21:56:15.189Z,21.60
2018-06-29T21:58:43.616Z,21.60
2018-06-29T22:01:13.020Z,21.50
2018-06-29T22:03:41.524Z,21.50
2018-06-29T22:06:09.934Z,21.40
2018-06-29T22:11:06.451Z,21.30
2018-06-29T22:13:34.894Z,21.30
2018-06-29T22:16:03.277Z,21.30
2018-06-29T22:18:31.664Z,21.20
2018-06-29T22:21:00.167Z,21.20
2018-06-29T22:23:28.608Z,21.20
2018-06-29T22:25:57.076Z,21.10
2018-06-29T22:33:21.684Z,21.00
2018-06-29T22:35:50.090Z,21.00
2018-06-29T22:38:18.553Z,20.90
2018-06-29T22:43:15.145Z,20.80
2018-06-29T22:45:43.572Z,20.80
2018-06-29T22:48:12.009Z,20.70
2018-06-29T22:50:40.431Z,20.70
2018-06-29T22:53:09.028Z,20.70
2018-06-29T22:55:37.590Z,20.60
2018-06-29T22:58:05.996Z,20.60
2018-06-29T23:00:34.402Z,20.60
2018-06-29T23:03:06.478Z,20.50
2018-06-29T23:05:34.999Z,20.50
2018-06-29T23:08:03.520Z,20.40
2018-06-29T23:10:31.933Z,20.40
2018-06-29T23:13:00.300Z,20.40
2018-06-29T23:15:28.753Z,20.40
2018-06-29T23:17:57.324Z,20.30
2018-06-29T23:20:25.883Z,20.30
2018-06-29T23:22:54.380Z,20.30
2018-06-29T23:25:23.479Z,20.20
2018-06-29T23:30:19.982Z,20.20
2018-06-29T23:32:48.423Z,20.20
2018-06-29T23:35:16.875Z,20.20
2018-06-29T23:37:45.359Z,20.10
2018-06-29T23:40:13.827Z,20.10
2018-06-29T23:42:42.221Z,20.00
2018-06-29T23:45:10.672Z,20.00
2018-06-29T23:47:39.065Z,20.00
2018-06-29T23:50:07.488Z,20.00
2018-06-29T23:52:35.861Z,20.00
2018-06-29T23:55:04.319Z,19.90
2018-06-29T23:57:32.732Z,19.90
